Terminal Aerodrome Forecast
Issued by NWS

Home | Current Version | Previous Version | Text Only | Print | Product List | Glossary On
Versions: 1 2 3 4 5 6 7 8 9 10 11 12 13 14 15
536
FTUS43 KMQT 021734
TAFSAW
TAF
KSAW 021734Z 0218/0318 33009KT P6SM -SHSN OVC015
     FM021900 33009KT P6SM OVC025
     FM022000 32008KT P6SM OVC035
     FM030200 31005KT P6SM OVC025=

USA.gov is the U.S. government's official web portal to all federal, state and local government web resources and services.